Time;durP1;ratioP1;P1;durP2;ratioP2;P2;SDS_P1;SDS_P2;PMS_P1;PMS_P2;Temp;Humidity;BMP_temperature;BMP_pressure;BME280_temperature;BME280_humidity;BME280_pressure;Samples;Min_cycle;Max_cycle;Signal;HPM_P1;HPM_P2
2022/07/15 00:00:50;;;;;;;2.85;1.88;;;25.90;68.70;;;;;;5076268;28;20490;-74
2022/07/15 00:03:16;;;;;;;3.35;2.10;;;25.90;68.50;;;;;;5093958;28;20040;-74
2022/07/15 00:05:42;;;;;;;2.13;1.65;;;26.00;68.30;;;;;;5094295;28;20031;-74
2022/07/15 00:08:08;;;;;;;1.70;1.63;;;25.90;68.70;;;;;;5094178;28;20023;-74
2022/07/15 00:10:33;;;;;;;3.13;1.70;;;25.90;68.60;;;;;;5093837;28;20552;-74
2022/07/15 00:13:01;;;;;;;1.98;1.88;;;25.90;68.70;;;;;;5093992;28;20074;-74
2022/07/15 00:15:32;;;;;;;4.95;1.90;;;25.90;68.70;;;;;;5093946;28;20081;-73
2022/07/15 00:18:01;;;;;;;2.88;1.77;;;25.90;68.70;;;;;;5075693;28;20027;-73
2022/07/15 00:20:33;;;;;;;2.40;1.92;;;25.90;68.70;;;;;;5093945;28;20027;-74
2022/07/15 00:23:08;;;;;;;;;;;25.80;68.70;;;;;;5075961;28;20024;-74
2022/07/15 00:25:34;;;;;;;3.17;1.85;;;25.80;68.80;;;;;;5093824;28;19911;-74
2022/07/15 00:28:06;;;;;;;2.08;1.73;;;25.80;68.80;;;;;;5075523;28;20051;-74
2022/07/15 00:30:34;;;;;;;1.80;1.70;;;25.70;69.00;;;;;;5075365;28;20031;-74
2022/07/15 00:33:00;;;;;;;3.45;2.00;;;25.70;69.20;;;;;;5075503;28;20089;-74
2022/07/15 00:35:27;;;;;;;1.80;1.70;;;25.60;69.50;;;;;;5093749;28;20028;-73
2022/07/15 00:37:53;;;;;;;3.17;2.00;;;25.60;69.70;;;;;;5093461;28;20154;-73
2022/07/15 00:40:19;;;;;;;3.40;1.80;;;25.60;69.70;;;;;;5074830;28;20099;-74
2022/07/15 00:42:45;;;;;;;2.15;1.55;;;25.60;69.70;;;;;;5075314;28;20028;-73
2022/07/15 00:45:16;;;;;;;2.08;1.80;;;25.50;69.80;;;;;;5093477;28;20020;-73
2022/07/15 00:47:47;;;;;;;2.13;1.98;;;25.50;69.90;;;;;;5093620;28;20103;-73
2022/07/15 00:50:14;;;;;;;2.17;1.90;;;25.50;70.00;;;;;;5093239;28;20413;-73
2022/07/15 00:52:43;;;;;;;1.80;1.70;;;25.50;70.00;;;;;;5093373;28;20020;-73
2022/07/15 00:55:11;;;;;;;2.60;2.05;;;25.50;70.30;;;;;;5075285;28;20106;-73
2022/07/15 00:57:42;;;;;;;1.88;1.75;;;25.40;70.30;;;;;;5075196;28;20077;-73
2022/07/15 01:00:10;;;;;;;1.70;1.60;;;25.50;70.30;;;;;;5093268;28;20028;-73
2022/07/15 01:02:38;;;;;;;2.35;1.90;;;25.50;70.40;;;;;;5093160;28;20024;-73
2022/07/15 01:05:05;;;;;;;2.53;1.77;;;25.50;70.40;;;;;;5093223;28;20078;-73
2022/07/15 01:07:32;;;;;;;3.53;2.28;;;25.40;70.50;;;;;;5093706;28;20016;-73
2022/07/15 01:09:58;;;;;;;2.55;2.08;;;25.40;70.90;;;;;;5093236;28;20108;-74
2022/07/15 01:12:25;;;;;;;1.90;1.70;;;25.40;71.00;;;;;;5074832;28;20035;-73
2022/07/15 01:14:51;;;;;;;4.10;1.90;;;25.40;71.10;;;;;;5093130;28;20021;-73
2022/07/15 01:17:16;;;;;;;4.65;2.30;;;25.30;71.20;;;;;;5093266;28;20391;-73
2022/07/15 01:19:42;;;;;;;4.97;2.05;;;25.20;71.80;;;;;;5093136;28;20110;-73
2022/07/15 01:22:08;;;;;;;2.20;1.70;;;25.20;72.30;;;;;;5092950;28;20028;-74
2022/07/15 01:24:34;;;;;;;1.90;1.80;;;25.20;72.40;;;;;;5093176;28;20032;-74
2022/07/15 01:27:00;;;;;;;1.98;1.88;;;25.20;72.30;;;;;;5093260;28;20051;-73
2022/07/15 01:29:27;;;;;;;1.73;1.70;;;25.20;71.90;;;;;;5074912;28;20020;-73
2022/07/15 01:31:53;;;;;;;2.05;1.85;;;25.20;72.00;;;;;;5092987;28;20441;-73
2022/07/15 01:34:19;;;;;;;2.03;1.85;;;25.20;72.30;;;;;;5093149;28;20028;-73
2022/07/15 01:36:45;;;;;;;1.98;1.88;;;25.10;72.70;;;;;;5092854;28;20016;-74
2022/07/15 01:39:14;;;;;;;2.30;2.10;;;25.10;72.80;;;;;;5074735;28;20115;-73
2022/07/15 01:41:40;;;;;;;1.90;1.80;;;25.10;72.90;;;;;;5074789;28;20020;-73
2022/07/15 01:44:05;;;;;;;2.75;1.77;;;25.10;73.20;;;;;;5092906;28;20031;-73
2022/07/15 01:46:31;;;;;;;2.60;1.70;;;25.10;73.20;;;;;;5092886;28;20020;-73
2022/07/15 01:51:41;;;;;;;2.70;1.92;;;25.10;74.40;;;;;;5095906;28;20403;-73
2022/07/15 01:54:07;;;;;;;2.47;1.98;;;25.00;73.50;;;;;;5078510;28;20020;-74
2022/07/15 01:56:32;;;;;;;5.32;2.00;;;25.10;73.50;;;;;;5096736;28;20434;-73
2022/07/15 01:58:58;;;;;;;3.65;1.98;;;25.20;73.30;;;;;;5096460;28;20533;-74
2022/07/15 02:01:24;;;;;;;2.10;2.00;;;25.20;73.20;;;;;;5096484;28;20042;-74
2022/07/15 02:03:50;;;;;;;3.40;2.10;;;25.30;73.00;;;;;;5078093;28;20043;-74
2022/07/15 02:06:18;;;;;;;8.80;1.88;;;25.20;73.20;;;;;;5096501;28;20031;-74
2022/07/15 02:08:44;;;;;;;4.43;2.28;;;25.30;73.40;;;;;;5078316;28;20076;-74
2022/07/15 02:11:11;;;;;;;2.55;2.28;;;25.30;73.50;;;;;;5096415;28;20484;-74
2022/07/15 02:13:36;;;;;;;2.95;1.70;;;25.30;73.70;;;;;;5096157;28;20090;-73
2022/07/15 02:16:04;;;;;;;3.53;2.28;;;25.30;73.80;;;;;;5096188;28;20475;-74
2022/07/15 02:18:29;;;;;;;3.50;1.92;;;25.20;74.00;;;;;;5096576;28;20043;-74
2022/07/15 02:20:55;;;;;;;2.40;2.20;;;25.30;74.10;;;;;;5096167;28;20032;-74
2022/07/15 02:23:21;;;;;;;2.33;2.22;;;25.30;74.30;;;;;;5095947;28;20031;-74
2022/07/15 02:25:47;;;;;;;2.72;2.47;;;25.20;74.50;;;;;;5096147;28;20032;-74
2022/07/15 02:28:13;;;;;;;3.88;2.03;;;25.20;74.70;;;;;;5096003;28;20101;-74
2022/07/15 02:30:42;;;;;;;3.00;2.42;;;25.20;75.00;;;;;;5095834;28;20028;-73
2022/07/15 02:33:08;;;;;;;1.98;1.88;;;25.20;75.30;;;;;;5077699;28;20024;-73
2022/07/15 02:35:34;;;;;;;5.22;2.53;;;25.20;75.80;;;;;;5096110;28;20047;-74
2022/07/15 02:38:01;;;;;;;2.45;2.25;;;25.10;76.30;;;;;;5095780;28;20020;-74
2022/07/15 02:40:27;;;;;;;2.65;2.30;;;25.10;76.60;;;;;;5095777;28;20103;-73
2022/07/15 02:42:55;;;;;;;6.00;2.60;;;25.10;76.80;;;;;;5095678;28;20020;-73
2022/07/15 02:45:25;;;;;;;4.28;2.67;;;25.10;77.30;;;;;;5095670;28;20396;-73
2022/07/15 02:47:51;;;;;;;4.85;2.30;;;25.10;77.70;;;;;;5077451;28;20016;-73
2022/07/15 02:50:19;;;;;;;3.03;2.55;;;25.00;78.30;;;;;;5095561;28;20078;-73
2022/07/15 02:52:45;;;;;;;2.55;2.20;;;25.00;78.60;;;;;;5077408;28;20024;-73
2022/07/15 02:55:12;;;;;;;3.53;2.42;;;25.00;78.80;;;;;;5095793;28;20020;-73
2022/07/15 02:57:38;;;;;;;2.92;2.72;;;25.00;79.20;;;;;;5077284;28;20032;-73
2022/07/15 03:00:11;;;;;;;4.10;2.67;;;25.10;79.40;;;;;;5095493;28;20051;-74
2022/07/15 03:02:37;;;;;;;3.10;2.38;;;25.00;79.60;;;;;;5094650;28;20100;-73
2022/07/15 03:05:07;;;;;;;2.70;2.50;;;25.00;80.00;;;;;;5077141;28;20464;-73
2022/07/15 03:07:33;;;;;;;4.10;2.58;;;25.00;80.40;;;;;;5095083;28;20085;-73
2022/07/15 03:09:58;;;;;;;2.67;2.45;;;25.00;80.80;;;;;;5077038;28;20119;-74
2022/07/15 03:12:24;;;;;;;4.18;3.35;;;24.90;81.20;;;;;;5095196;28;20028;-74
2022/07/15 03:14:51;;;;;;;5.43;2.72;;;25.00;81.40;;;;;;5095302;28;20035;-73
2022/07/15 03:17:16;;;;;;;3.63;2.55;;;24.90;81.30;;;;;;5095350;28;20047;-73
2022/07/15 03:19:42;;;;;;;2.72;2.53;;;24.90;81.80;;;;;;5095047;28;20467;-74
2022/07/15 03:22:08;;;;;;;2.75;2.45;;;24.90;82.10;;;;;;5094919;28;20089;-74
2022/07/15 03:24:34;;;;;;;4.18;2.40;;;24.90;82.20;;;;;;5095001;28;20020;-74
2022/07/15 03:27:00;;;;;;;2.90;2.70;;;25.00;82.40;;;;;;5094883;28;20024;-73
2022/07/15 03:29:28;;;;;;;2.72;2.53;;;24.90;83.10;;;;;;5094915;28;20056;-73
2022/07/15 03:31:55;;;;;;;3.35;2.85;;;24.90;82.70;;;;;;5076432;28;20024;-73
2022/07/15 03:34:21;;;;;;;3.40;2.67;;;24.80;83.20;;;;;;5094923;28;20028;-73
2022/07/15 03:36:46;;;;;;;4.15;3.28;;;24.80;83.50;;;;;;5094680;28;20070;-74
2022/07/15 03:39:12;;;;;;;2.88;2.67;;;24.80;83.60;;;;;;5094581;28;20028;-74
2022/07/15 03:41:38;;;;;;;2.80;2.60;;;24.80;83.80;;;;;;5094671;28;20052;-73
2022/07/15 03:44:04;;;;;;;3.35;3.08;;;24.70;84.00;;;;;;5076324;28;20020;-73
2022/07/15 03:46:30;;;;;;;3.08;2.80;;;24.70;84.50;;;;;;5076303;28;20513;-74
2022/07/15 03:48:56;;;;;;;3.67;2.80;;;24.80;84.40;;;;;;5094539;28;20028;-74
2022/07/15 03:51:24;;;;;;;6.72;2.50;;;24.80;84.30;;;;;;5076083;28;20028;-73
2022/07/15 03:53:51;;;;;;;2.95;2.75;;;24.80;84.50;;;;;;5094317;28;20031;-73
2022/07/15 03:56:17;;;;;;;5.43;3.03;;;24.70;85.10;;;;;;5076106;28;20027;-73
2022/07/15 03:58:46;;;;;;;3.00;2.80;;;24.70;85.50;;;;;;5094275;28;20471;-74
2022/07/15 04:01:12;;;;;;;3.20;3.00;;;24.70;85.70;;;;;;5094192;28;20495;-73
2022/07/15 04:03:38;;;;;;;3.83;3.08;;;24.70;85.90;;;;;;5075811;28;20093;-73
2022/07/15 04:06:04;;;;;;;3.00;2.75;;;24.60;86.20;;;;;;5094164;28;20032;-73
2022/07/15 04:08:29;;;;;;;3.40;2.70;;;24.60;86.50;;;;;;5076169;28;20031;-73
2022/07/15 04:10:59;;;;;;;4.72;2.67;;;24.60;87.10;;;;;;5093834;28;20414;-73
2022/07/15 04:13:25;;;;;;;3.13;2.90;;;24.60;87.50;;;;;;5093587;28;20445;-74
2022/07/15 04:15:51;;;;;;;3.60;2.72;;;24.60;88.10;;;;;;5075384;28;20040;-73
2022/07/15 04:18:16;;;;;;;3.20;3.00;;;24.60;88.70;;;;;;5093893;28;20090;-74
2022/07/15 04:20:42;;;;;;;7.45;3.45;;;24.60;89.90;;;;;;5075687;28;20028;-73
2022/07/15 04:23:08;;;;;;;3.10;2.78;;;24.60;88.70;;;;;;5093917;28;20059;-74
2022/07/15 04:25:34;;;;;;;3.08;2.72;;;24.60;89.20;;;;;;5093791;28;20073;-74
2022/07/15 04:27:59;;;;;;;3.10;2.90;;;24.60;89.80;;;;;;5093756;28;20019;-74
2022/07/15 04:30:25;;;;;;;4.38;2.67;;;24.70;89.50;;;;;;5093796;28;20107;-74
2022/07/15 04:32:51;;;;;;;3.20;3.00;;;24.70;89.40;;;;;;5075728;28;20031;-74
2022/07/15 04:35:17;;;;;;;3.42;3.17;;;24.70;90.00;;;;;;5075371;28;20020;-74
2022/07/15 04:37:43;;;;;;;6.65;3.35;;;24.80;90.00;;;;;;5093831;28;20028;-74
2022/07/15 04:40:09;;;;;;;3.22;2.95;;;24.80;90.30;;;;;;5093601;28;20161;-74
2022/07/15 04:42:36;;;;;;;5.28;3.08;;;24.80;90.20;;;;;;5075383;28;20056;-74
2022/07/15 04:45:02;;;;;;;7.85;3.30;;;24.80;90.50;;;;;;5093534;28;20089;-74
2022/07/15 04:47:28;;;;;;;4.93;3.03;;;24.80;90.30;;;;;;5093451;28;20066;-74
2022/07/15 04:52:43;;;;;;;3.97;3.10;;;24.90;90.60;;;;;;5093409;28;20043;-74
2022/07/15 04:55:09;;;;;;;2.95;2.75;;;24.90;90.70;;;;;;5093455;28;20387;-74
2022/07/15 04:57:35;;;;;;;3.05;2.83;;;25.00;91.50;;;;;;5075205;28;20034;-74
2022/07/15 05:00:01;;;;;;;4.43;3.65;;;25.00;92.80;;;;;;5093466;28;20368;-74
2022/07/15 05:02:27;;;;;;;3.13;2.95;;;25.00;92.10;;;;;;5093284;28;20471;-74
2022/07/15 05:04:52;;;;;;;3.72;3.42;;;25.00;91.50;;;;;;5093377;28;20032;-74
2022/07/15 05:07:18;;;;;;;3.22;3.10;;;25.00;91.40;;;;;;5093280;28;20020;-74
2022/07/15 05:09:44;;;;;;;3.40;3.20;;;25.00;91.50;;;;;;5093349;28;20024;-74
2022/07/15 05:12:09;;;;;;;3.45;3.15;;;25.00;91.70;;;;;;5074828;28;20032;-74
2022/07/15 05:14:38;;;;;;;5.13;2.95;;;25.00;91.90;;;;;;5093135;28;20107;-74
2022/07/15 05:17:03;;;;;;;3.17;2.83;;;25.10;92.00;;;;;;5093172;28;20472;-74
2022/07/15 05:19:29;;;;;;;6.03;3.50;;;25.20;92.30;;;;;;5093034;28;20054;-74
2022/07/15 05:21:55;;;;;;;4.70;3.22;;;25.30;92.20;;;;;;5074850;28;20055;-74
2022/07/15 05:24:22;;;;;;;3.13;2.92;;;25.30;92.50;;;;;;5093139;28;20052;-74
2022/07/15 05:26:47;;;;;;;3.58;3.28;;;25.30;93.00;;;;;;5096430;28;20030;-74
2022/07/15 05:29:13;;;;;;;3.13;2.78;;;25.30;93.40;;;;;;5097126;28;20103;-74
2022/07/15 05:31:39;;;;;;;3.22;3.03;;;25.30;93.00;;;;;;5097093;28;20028;-74
2022/07/15 05:34:05;;;;;;;4.72;2.97;;;25.40;92.20;;;;;;5078835;28;20027;-74
2022/07/15 05:36:31;;;;;;;3.30;3.00;;;25.40;91.70;;;;;;5096949;28;20570;-74
2022/07/15 05:38:56;;;;;;;6.95;2.67;;;25.50;87.50;;;;;;5078919;28;20111;-74
2022/07/15 05:41:22;;;;;;;4.80;2.60;;;25.50;88.80;;;;;;5096992;28;20034;-74
2022/07/15 05:43:48;;;;;;;3.78;2.50;;;25.50;87.70;;;;;;5096743;28;20433;-74
2022/07/15 05:46:14;;;;;;;6.85;3.13;;;25.60;87.00;;;;;;5096870;28;20532;-74
2022/07/15 05:48:40;;;;;;;5.97;2.75;;;25.60;84.20;;;;;;5097417;28;20032;-74
2022/07/15 05:51:07;;;;;;;6.13;2.65;;;25.60;84.40;;;;;;5097985;28;20028;-74
2022/07/15 05:53:33;;;;;;;3.75;2.47;;;25.60;84.00;;;;;;5098620;28;20491;-74
2022/07/15 05:55:59;;;;;;;2.90;2.47;;;25.60;84.50;;;;;;5098631;28;20173;-74
2022/07/15 05:58:25;;;;;;;4.22;3.22;;;25.70;85.30;;;;;;5116995;28;20023;-74
2022/07/15 06:00:52;;;;;;;3.90;2.25;;;25.80;85.20;;;;;;5116962;28;20031;-74
2022/07/15 06:03:18;;;;;;;3.13;2.47;;;25.80;85.30;;;;;;5095059;28;20135;-74
2022/07/15 06:05:45;;;;;;;3.25;3.05;;;25.80;86.10;;;;;;5096378;28;20035;-74
2022/07/15 06:08:10;;;;;;;3.03;2.78;;;25.80;84.30;;;;;;5096417;28;20020;-74
2022/07/15 06:10:37;;;;;;;4.68;2.95;;;25.90;84.80;;;;;;5096465;28;20032;-74
2022/07/15 06:13:04;;;;;;;3.15;2.95;;;25.90;84.90;;;;;;5095232;28;20035;-74
2022/07/15 06:15:30;;;;;;;4.65;2.55;;;25.90;84.50;;;;;;5096270;28;20032;-74
2022/07/15 06:17:56;;;;;;;4.90;3.13;;;25.90;84.50;;;;;;5095143;28;20429;-74
2022/07/15 06:20:22;;;;;;;4.15;3.15;;;25.90;85.50;;;;;;5096186;28;20047;-74
2022/07/15 06:22:48;;;;;;;5.38;2.88;;;26.00;85.10;;;;;;5094933;28;20024;-74
2022/07/15 06:25:14;;;;;;;2.83;2.65;;;26.00;85.20;;;;;;5096147;28;20483;-74
2022/07/15 06:27:40;;;;;;;8.30;2.80;;;26.10;85.50;;;;;;5096401;28;20024;-74
2022/07/15 06:30:07;;;;;;;3.42;3.13;;;26.10;84.80;;;;;;5095958;28;20028;-74
2022/07/15 06:32:33;;;;;;;8.15;3.38;;;26.10;85.20;;;;;;5095699;28;20016;-74
2022/07/15 06:34:58;;;;;;;3.85;2.97;;;26.10;85.10;;;;;;5095834;28;20093;-74
2022/07/15 06:37:24;;;;;;;3.70;2.65;;;26.20;86.20;;;;;;5094901;28;20027;-76
2022/07/15 06:39:50;;;;;;;4.68;3.20;;;26.30;85.00;;;;;;5095710;28;20047;-75
2022/07/15 06:42:16;;;;;;;8.93;3.38;;;26.20;84.60;;;;;;5094337;28;20027;-76
2022/07/15 06:44:41;;;;;;;2.90;2.67;;;26.30;85.70;;;;;;5095640;28;20024;-75
2022/07/15 06:47:07;;;;;;;4.55;2.70;;;26.30;86.40;;;;;;5095626;28;20020;-75
2022/07/15 06:49:34;;;;;;;6.28;3.25;;;26.40;86.70;;;;;;5095529;28;20146;-76
2022/07/15 06:52:00;;;;;;;3.53;3.15;;;26.50;87.20;;;;;;5095435;28;20032;-76
2022/07/15 06:54:26;;;;;;;5.00;3.80;;;26.50;86.00;;;;;;5095524;28;20499;-76
2022/07/15 06:56:52;;;;;;;4.95;3.38;;;26.50;85.10;;;;;;5095329;28;20020;-75
2022/07/15 06:59:18;;;;;;;4.35;3.95;;;26.50;84.90;;;;;;5095258;28;20024;-74
2022/07/15 07:01:44;;;;;;;4.15;3.55;;;26.50;85.80;;;;;;5095200;28;20035;-74
2022/07/15 07:04:09;;;;;;;3.95;3.65;;;26.60;84.80;;;;;;5114159;28;20502;-74
2022/07/15 07:06:35;;;;;;;9.05;4.10;;;26.60;83.50;;;;;;5115712;28;20483;-74
2022/07/15 07:09:01;;;;;;;5.53;3.20;;;26.60;83.00;;;;;;5115523;28;20398;-74
2022/07/15 07:11:27;;;;;;;4.22;2.90;;;26.60;84.00;;;;;;5097104;28;20490;-73
2022/07/15 07:13:53;;;;;;;3.47;3.17;;;26.70;85.00;;;;;;5115485;28;20413;-73
2022/07/15 07:16:19;;;;;;;3.20;3.00;;;26.80;84.70;;;;;;5115472;28;20038;-73
2022/07/15 07:18:45;;;;;;;3.13;2.88;;;26.80;84.80;;;;;;5115346;28;20497;-73
2022/07/15 07:21:12;;;;;;;3.88;3.58;;;26.90;83.40;;;;;;5115292;28;20020;-74
2022/07/15 07:23:39;;;;;;;4.68;3.05;;;26.90;83.10;;;;;;5097004;28;20027;-74
2022/07/15 07:26:06;;;;;;;6.32;3.70;;;27.00;82.70;;;;;;5115253;28;20064;-74
2022/07/15 07:28:33;;;;;;;4.22;3.83;;;27.00;83.00;;;;;;5114297;28;20023;-76
2022/07/15 07:31:00;;;;;;;3.70;3.30;;;27.00;83.10;;;;;;5115147;28;20027;-76
2022/07/15 07:33:25;;;;;;;6.75;3.60;;;27.10;82.50;;;;;;5115071;28;20049;-76
2022/07/15 07:35:51;;;;;;;4.38;3.38;;;27.10;83.20;;;;;;5115112;28;20016;-76
2022/07/15 07:38:19;;;;;;;4.03;3.58;;;27.10;83.00;;;;;;5096668;28;20365;-76
2022/07/15 07:40:47;;;;;;;4.65;4.00;;;27.10;82.40;;;;;;5096811;28;20020;-77
2022/07/15 07:43:15;;;;;;;3.70;3.40;;;27.20;81.50;;;;;;5114755;28;20016;-76
2022/07/15 07:45:41;;;;;;;3.63;3.42;;;27.20;81.10;;;;;;5114833;28;20073;-76
2022/07/15 07:48:07;;;;;;;5.93;3.80;;;27.20;81.50;;;;;;5114469;28;20051;-76
2022/07/15 07:50:33;;;;;;;3.80;3.50;;;27.30;80.20;;;;;;5114614;28;20027;-76
2022/07/15 07:52:59;;;;;;;6.35;4.03;;;27.30;81.70;;;;;;5096137;28;20080;-76
2022/07/15 07:55:25;;;;;;;7.78;3.40;;;27.40;82.90;;;;;;5114700;28;20038;-77
2022/07/15 07:57:56;;;;;;;4.07;3.72;;;27.40;82.70;;;;;;5114669;28;20106;-76
2022/07/15 08:00:23;;;;;;;3.67;3.38;;;27.40;80.90;;;;;;5114715;28;20019;-76
2022/07/15 08:02:50;;;;;;;3.53;3.22;;;27.50;82.60;;;;;;5114118;28;20055;-76
2022/07/15 08:05:16;;;;;;;3.92;3.45;;;27.50;79.80;;;;;;5114510;28;20036;-76
2022/07/15 08:07:42;;;;;;;4.70;4.30;;;27.50;78.70;;;;;;5114369;28;20513;-76
2022/07/15 08:10:10;;;;;;;3.92;3.58;;;27.60;78.30;;;;;;5114405;28;20028;-76
2022/07/15 08:12:37;;;;;;;4.35;3.63;;;27.60;78.50;;;;;;5114235;28;20466;-76
2022/07/15 08:15:13;;;;;;;4.95;3.30;;;27.70;80.10;;;;;;5114342;28;20038;-76
2022/07/15 08:17:40;;;;;;;4.38;3.88;;;27.80;81.80;;;;;;5114316;28;20024;-76
2022/07/15 08:20:10;;;;;;;7.07;3.30;;;27.80;81.30;;;;;;5114120;28;20024;-76
2022/07/15 08:22:37;;;;;;;11.32;3.45;;;27.90;80.90;;;;;;5114052;28;20024;-76
2022/07/15 08:25:03;;;;;;;4.57;3.63;;;27.90;78.90;;;;;;5110335;28;20178;-76
2022/07/15 08:27:30;;;;;;;4.10;3.53;;;28.00;78.60;;;;;;5111292;28;20081;-78
2022/07/15 08:29:56;;;;;;;3.45;3.15;;;28.00;78.20;;;;;;5111152;28;20031;-76
2022/07/15 08:32:22;;;;;;;3.85;3.55;;;28.00;79.40;;;;;;5111294;28;20081;-76
2022/07/15 08:34:47;;;;;;;3.25;3.05;;;28.10;77.30;;;;;;5111366;28;20559;-78
2022/07/15 08:37:14;;;;;;;4.65;3.63;;;28.30;79.10;;;;;;5111588;28;20012;-78
2022/07/15 08:39:39;;;;;;;3.75;3.38;;;28.30;76.20;;;;;;5111444;28;20389;-76
2022/07/15 08:42:06;;;;;;;3.33;3.00;;;28.30;78.20;;;;;;5110934;28;20098;-76
2022/07/15 08:44:32;;;;;;;8.85;4.07;;;28.30;78.90;;;;;;5111560;28;20019;-77
2022/07/15 08:47:03;;;;;;;4.47;3.40;;;28.40;77.30;;;;;;5110816;28;20028;-77
2022/07/15 08:49:32;;;;;;;4.13;3.83;;;28.50;76.80;;;;;;5110899;28;20051;-75
2022/07/15 08:52:00;;;;;;;3.33;2.90;;;28.50;77.00;;;;;;5092576;28;20066;-75
2022/07/15 08:54:28;;;;;;;5.43;4.03;;;28.70;78.50;;;;;;5110532;28;20050;-77
2022/07/15 08:56:54;;;;;;;5.65;3.40;;;28.80;75.60;;;;;;5110919;28;20141;-77
2022/07/15 08:59:20;;;;;;;6.38;4.40;;;28.80;75.80;;;;;;5109439;28;20106;-76
2022/07/15 09:01:48;;;;;;;4.97;4.05;;;28.80;75.20;;;;;;5108123;28;20028;-75
2022/07/15 09:04:15;;;;;;;6.43;3.83;;;28.80;75.50;;;;;;5092380;28;20067;-77
2022/07/15 09:06:43;;;;;;;6.20;3.75;;;28.90;77.30;;;;;;5111286;28;20102;-76
2022/07/15 09:09:36;;;;;;;7.40;3.55;;;28.90;76.10;;;;;;5110912;28;20505;-76
2022/07/15 09:12:05;;;;;;;4.05;3.70;;;29.10;77.10;;;;;;5110591;28;20401;-75
2022/07/15 09:14:34;;;;;;;3.85;3.55;;;29.20;77.60;;;;;;5110626;28;20030;-78
2022/07/15 09:17:21;;;;;;;4.05;3.55;;;29.30;76.60;;;;;;5092220;28;20054;-76
2022/07/15 09:20:00;;;;;;;5.50;4.65;;;29.40;73.60;;;;;;5110414;28;20709;-76
2022/07/15 09:22:31;;;;;;;3.80;3.45;;;29.40;73.40;;;;;;5110576;28;20024;-76
2022/07/15 09:25:09;;;;;;;5.15;4.63;;;29.40;74.40;;;;;;5110318;28;20029;-75
2022/07/15 09:27:40;;;;;;;4.13;3.65;;;29.30;73.00;;;;;;5110446;28;20077;-76
2022/07/15 09:33:36;;;;;;;4.25;3.50;;;29.40;75.60;;;;;;5110467;28;20126;-76
2022/07/15 09:36:11;;;;;;;4.07;3.65;;;29.50;77.10;;;;;;5092474;28;20016;-76
2022/07/15 09:38:40;;;;;;;4.38;4.00;;;29.60;76.00;;;;;;5092006;28;20016;-75
2022/07/15 09:41:10;;;;;;;4.45;4.05;;;29.80;74.30;;;;;;5092464;28;20073;-76
2022/07/15 09:43:49;;;;;;;4.53;4.15;;;29.90;74.70;;;;;;5092391;28;20034;-76
2022/07/15 09:46:16;;;;;;;6.03;4.30;;;29.90;72.10;;;;;;5110575;28;20016;-77
2022/07/15 09:48:47;;;;;;;7.28;4.38;;;29.90;72.30;;;;;;5109978;28;20031;-77
2022/07/15 09:51:14;;;;;;;3.80;3.50;;;29.90;75.50;;;;;;5091440;28;20030;-77
2022/07/15 09:53:41;;;;;;;5.20;3.58;;;30.00;76.20;;;;;;5110728;28;20020;-76
2022/07/15 09:56:14;;;;;;;4.80;4.30;;;30.20;72.40;;;;;;5110290;28;20090;-76
2022/07/15 09:58:42;;;;;;;4.30;3.95;;;30.20;71.10;;;;;;5091739;28;20031;-75
2022/07/15 10:01:09;;;;;;;7.00;4.10;;;30.30;71.80;;;;;;5110340;28;20027;-76
2022/07/15 10:03:35;;;;;;;9.07;4.63;;;30.30;71.30;;;;;;5109936;28;20043;-76
2022/07/15 10:06:02;;;;;;;4.88;3.83;;;30.30;71.50;;;;;;5091501;28;20050;-76
2022/07/15 10:08:31;;;;;;;5.47;4.40;;;30.30;71.30;;;;;;5110758;28;20062;-78
2022/07/15 10:10:57;;;;;;;8.95;4.07;;;30.30;72.80;;;;;;5092566;28;20432;-76
2022/07/15 10:13:48;;;;;;;7.28;4.35;;;30.30;74.50;;;;;;5114007;28;20088;-78
2022/07/15 10:16:38;;;;;;;6.50;4.00;;;30.50;73.10;;;;;;5113878;28;20039;-76
2022/07/15 10:19:19;;;;;;;6.72;4.20;;;30.50;72.70;;;;;;5113989;28;20583;-77
2022/07/15 10:22:10;;;;;;;5.03;3.80;;;30.70;72.90;;;;;;5113525;28;20012;-76
2022/07/15 10:25:08;;;;;;;7.93;4.75;;;30.90;72.60;;;;;;5113658;28;20024;-77
2022/07/15 10:28:16;;;;;;;4.63;4.30;;;31.10;70.90;;;;;;5097306;28;20063;-75
2022/07/15 10:30:43;;;;;;;4.82;4.40;;;31.00;71.00;;;;;;5113434;28;20035;-76
2022/07/15 10:33:13;;;;;;;6.75;5.03;;;31.20;70.00;;;;;;5114105;28;20556;-76
2022/07/15 10:35:53;;;;;;;6.75;4.90;;;31.30;69.60;;;;;;5113303;28;20455;-76
2022/07/15 10:38:38;;;;;;;5.95;4.53;;;31.30;69.40;;;;;;5113478;28;20024;-76
2022/07/15 10:41:11;;;;;;;10.48;5.40;;;31.40;69.50;;;;;;5095501;28;20024;-76
2022/07/15 10:43:50;;;;;;;5.30;4.82;;;31.30;68.80;;;;;;5112940;28;20658;-75
2022/07/15 10:46:19;;;;;;;4.78;4.38;;;31.40;70.00;;;;;;5095199;28;20043;-76
2022/07/15 10:48:46;;;;;;;5.85;4.97;;;31.50;69.80;;;;;;5112827;28;20490;-76
2022/07/15 10:51:31;;;;;;;5.55;4.13;;;31.60;68.60;;;;;;5113142;28;20036;-76
2022/07/15 10:53:57;;;;;;;5.13;4.70;;;31.70;69.40;;;;;;5112667;28;20095;-77
2022/07/15 10:56:30;;;;;;;6.50;4.25;;;31.80;68.40;;;;;;5094626;28;20711;-76
2022/07/15 10:59:14;;;;;;;4.90;3.90;;;31.90;70.00;;;;;;5094871;28;20586;-75
2022/07/15 11:01:45;;;;;;;5.00;4.60;;;32.00;68.40;;;;;;5113220;28;20019;-76
2022/07/15 11:04:21;;;;;;;5.03;4.72;;;32.10;68.00;;;;;;5113210;28;20048;-76
2022/07/15 11:07:09;;;;;;;4.88;4.20;;;32.20;68.50;;;;;;5112378;28;20020;-76
2022/07/15 11:09:59;;;;;;;4.93;4.53;;;32.20;67.50;;;;;;5105734;28;20048;-76
2022/07/15 11:12:28;;;;;;;5.80;4.68;;;32.10;66.10;;;;;;5091378;28;20467;-76
2022/07/15 11:14:54;;;;;;;4.38;3.78;;;32.20;67.10;;;;;;5092660;28;20035;-76
2022/07/15 11:17:28;;;;;;;6.63;4.63;;;32.40;69.70;;;;;;5092153;28;20009;-76
2022/07/15 11:19:59;;;;;;;6.30;4.28;;;32.30;65.20;;;;;;5091759;28;20062;-77
2022/07/15 11:22:27;;;;;;;5.00;4.60;;;32.40;68.50;;;;;;5092019;28;20031;-75
2022/07/15 11:24:54;;;;;;;5.20;4.70;;;32.50;66.90;;;;;;5092011;28;20028;-76
2022/07/15 11:27:22;;;;;;;4.72;4.13;;;32.70;66.60;;;;;;5092130;28;20028;-75
2022/07/15 11:29:51;;;;;;;7.28;4.72;;;32.90;65.60;;;;;;5091800;28;20415;-75
2022/07/15 11:32:19;;;;;;;4.50;4.00;;;33.00;65.70;;;;;;5092287;28;20028;-76
2022/07/15 11:35:03;;;;;;;4.72;4.43;;;32.80;65.00;;;;;;5091995;28;20475;-75
2022/07/15 11:37:36;;;;;;;9.18;4.90;;;33.00;66.40;;;;;;5074158;28;20032;-76
2022/07/15 11:40:05;;;;;;;6.70;5.47;;;33.20;66.20;;;;;;5091831;28;20020;-76
2022/07/15 11:45:34;;;;;;;5.32;4.82;;;33.30;65.00;;;;;;5092318;28;20046;-76
2022/07/15 11:48:00;;;;;;;5.15;4.75;;;33.40;65.20;;;;;;5091992;28;20052;-76
2022/07/15 11:50:26;;;;;;;7.22;4.35;;;33.40;66.20;;;;;;5091329;28;20497;-74
2022/07/15 11:52:58;;;;;;;7.88;4.65;;;33.50;64.10;;;;;;5090803;28;20063;-74
2022/07/15 11:55:23;;;;;;;9.45;4.38;;;33.60;65.60;;;;;;5091390;28;20548;-73
2022/07/15 11:57:51;;;;;;;5.20;4.75;;;33.70;66.50;;;;;;5090902;28;20030;-74
2022/07/15 12:00:19;;;;;;;5.45;3.92;;;33.80;64.90;;;;;;5090946;28;20028;-73
2022/07/15 12:02:45;;;;;;;5.07;4.65;;;33.90;63.30;;;;;;5090771;28;20044;-73
2022/07/15 12:05:11;;;;;;;10.63;4.95;;;33.90;62.50;;;;;;5090382;28;20028;-73
2022/07/15 12:07:45;;;;;;;5.47;5.05;;;34.10;62.30;;;;;;5091182;28;20106;-73
2022/07/15 12:10:12;;;;;;;5.38;4.82;;;34.20;63.30;;;;;;5091294;28;20032;-73
2022/07/15 12:12:56;;;;;;;4.85;4.45;;;34.50;62.00;;;;;;5090275;28;20430;-74
2022/07/15 12:15:22;;;;;;;8.68;5.20;;;34.40;61.90;;;;;;5090929;28;20012;-73
2022/07/15 12:17:49;;;;;;;6.47;4.93;;;34.50;62.40;;;;;;5072096;28;20546;-73
2022/07/15 12:20:15;;;;;;;5.40;4.95;;;34.30;60.30;;;;;;5091024;28;20016;-73
2022/07/15 12:23:08;;;;;;;4.60;4.30;;;34.30;61.60;;;;;;5089819;28;20223;-73
2022/07/15 12:25:34;;;;;;;5.05;4.63;;;34.50;63.10;;;;;;5069392;28;20118;-73
2022/07/15 12:28:00;;;;;;;4.63;4.32;;;34.70;63.00;;;;;;5090458;28;20021;-73
2022/07/15 12:30:34;;;;;;;10.65;5.03;;;34.80;62.50;;;;;;5090256;28;20032;-74
2022/07/15 12:33:21;;;;;;;6.65;4.65;;;34.90;60.30;;;;;;5090196;28;20044;-73
2022/07/15 12:35:48;;;;;;;4.45;4.05;;;35.00;61.40;;;;;;5089249;28;20460;-73
2022/07/15 12:38:27;;;;;;;5.45;4.95;;;35.00;60.50;;;;;;5072539;28;20516;-74
2022/07/15 12:41:13;;;;;;;5.72;5.28;;;35.30;61.20;;;;;;5090562;28;20023;-74
2022/07/15 12:43:50;;;;;;;6.03;4.80;;;35.30;58.70;;;;;;5078240;28;20484;-74
2022/07/15 12:46:16;;;;;;;5.93;5.43;;;35.20;57.90;;;;;;5093475;28;20479;-76
2022/07/15 12:48:47;;;;;;;6.80;5.05;;;35.00;57.60;;;;;;5093463;28;20020;-76
2022/07/15 12:51:14;;;;;;;5.68;5.15;;;34.80;59.10;;;;;;5093371;28;20032;-76
2022/07/15 12:53:41;;;;;;;6.18;5.63;;;34.80;59.30;;;;;;5095530;28;20090;-76
2022/07/15 12:56:07;;;;;;;6.38;5.88;;;34.70;58.70;;;;;;5093230;28;20019;-76
2022/07/15 12:58:37;;;;;;;9.15;5.38;;;34.70;59.70;;;;;;5110805;28;20440;-76
2022/07/15 13:01:04;;;;;;;7.07;5.15;;;34.70;59.90;;;;;;5110425;28;20031;-76
2022/07/15 13:03:30;;;;;;;7.13;5.68;;;34.60;58.80;;;;;;5111245;28;20048;-76
2022/07/15 13:05:56;;;;;;;5.57;4.95;;;34.60;58.70;;;;;;5110787;28;20479;-76